createdAt,value
2022-09-18T00:02:43.713Z,4.0504
2022-09-18T00:07:55.643Z,4.0504
2022-09-18T00:13:07.386Z,4.0504
2022-09-18T00:23:35.386Z,4.0504
2022-09-18T00:28:49.105Z,4.0504
2022-09-18T00:34:01.099Z,4.0504
2022-09-18T00:39:12.470Z,4.0504
2022-09-18T00:49:37.407Z,4.0504
2022-09-18T00:54:48.724Z,4.0553
2022-09-18T01:00:02.741Z,4.0504
2022-09-18T01:05:14.414Z,4.0504
2022-09-18T01:15:38.111Z,4.0455
2022-09-18T01:20:50.212Z,4.0455
2022-09-18T01:26:01.906Z,4.0455
2022-09-18T01:31:14.318Z,4.0455
2022-09-18T01:36:26.101Z,4.0455
2022-09-18T01:41:37.740Z,4.0455
2022-09-18T01:46:50.033Z,4.0455
2022-09-18T01:52:01.979Z,4.0455
2022-09-18T01:57:13.703Z,4.0455
2022-09-18T02:07:38.457Z,4.0406
2022-09-18T02:12:50.103Z,4.0406
2022-09-18T02:18:02.142Z,4.0406
2022-09-18T02:23:14.144Z,4.0406
2022-09-18T02:28:25.960Z,4.0406
2022-09-18T02:33:37.758Z,4.0406
2022-09-18T02:38:49.820Z,4.0406
2022-09-18T02:44:01.979Z,4.0455
2022-09-18T02:49:13.847Z,4.0309
2022-09-18T02:54:26.140Z,4.0455
2022-09-18T02:59:37.806Z,4.0309
2022-09-18T03:04:49.738Z,4.0406
2022-09-18T03:10:02.362Z,4.0309
2022-09-18T03:15:13.934Z,4.0309
2022-09-18T03:20:25.780Z,4.0309
2022-09-18T03:25:37.737Z,4.0309
2022-09-18T03:30:49.215Z,4.0309
2022-09-18T03:36:01.167Z,4.0309
2022-09-18T03:41:13.084Z,4.0309
2022-09-18T03:51:36.817Z,4.0309
2022-09-18T03:56:48.578Z,4.0309
2022-09-18T04:02:00.612Z,4.0309
2022-09-18T04:07:12.219Z,4.0309
2022-09-18T04:22:47.246Z,4.0309
2022-09-18T04:27:59.252Z,4.026
2022-09-18T04:33:10.700Z,4.026
2022-09-18T04:43:34.366Z,4.026
2022-09-18T04:48:46.003Z,4.026
2022-09-18T04:53:57.828Z,4.026
2022-09-18T04:59:09.673Z,4.026
2022-09-18T05:09:33.110Z,4.026
2022-09-18T05:14:45.056Z,4.026
2022-09-18T05:19:56.861Z,4.0309
2022-09-18T05:25:08.703Z,4.026
2022-09-18T05:40:44.713Z,4.026
2022-09-18T05:45:56.768Z,4.026
2022-09-18T05:51:08.442Z,4.026
2022-09-18T06:01:32.986Z,4.0211
2022-09-18T06:06:44.434Z,4.026
2022-09-18T06:11:56.563Z,4.0211
2022-09-18T06:17:08.363Z,4.0211
2022-09-18T06:27:32.288Z,4.0211
2022-09-18T06:32:44.498Z,4.0211
2022-09-18T06:37:56.488Z,4.0211
2022-09-18T06:43:08.463Z,4.0211
2022-09-18T06:53:32.199Z,4.0211
2022-09-18T06:58:44.166Z,4.0211
2022-09-18T07:03:56.376Z,4.0211
2022-09-18T07:09:08.107Z,4.0211
2022-09-18T07:19:32.439Z,4.0211
2022-09-18T07:24:44.232Z,4.0211
2022-09-18T07:29:56.546Z,4.0211
2022-09-18T07:35:08.799Z,4.0211
2022-09-18T07:45:32.690Z,4.0211
2022-09-18T07:50:45.049Z,4.0162
2022-09-18T07:55:56.908Z,4.0211
2022-09-18T08:01:08.935Z,4.0211
2022-09-18T08:11:33.238Z,4.0211
2022-09-18T08:16:45.989Z,4.0211
2022-09-18T08:21:58.131Z,4.0211
2022-09-18T08:27:10.060Z,4.0211
2022-09-18T08:37:34.546Z,4.0211
2022-09-18T08:42:46.471Z,4.0211
2022-09-18T08:47:58.771Z,4.0211
2022-09-18T08:53:10.966Z,4.0211
2022-09-18T09:08:47.428Z,4.0211
2022-09-18T09:13:59.173Z,4.026
2022-09-18T09:19:11.280Z,4.0211
2022-09-18T09:29:35.622Z,4.0211
2022-09-18T09:34:47.870Z,4.0211
2022-09-18T09:40:00.669Z,4.0211
2022-09-18T09:45:12.650Z,4.0211
2022-09-18T09:55:37.542Z,4.0211
2022-09-18T10:00:49.999Z,4.0211
2022-09-18T10:06:01.914Z,4.0162
2022-09-18T10:11:14.372Z,4.0211
2022-09-18T10:16:26.659Z,4.0162
2022-09-18T10:21:38.961Z,4.0211
2022-09-18T10:26:51.551Z,4.0211
2022-09-18T10:32:03.480Z,4.0162
2022-09-18T10:37:15.785Z,4.0162
2022-09-18T10:42:28.334Z,4.0162
2022-09-18T10:47:40.332Z,4.026
2022-09-18T10:52:52.587Z,4.0211
2022-09-18T10:58:04.954Z,4.0211
2022-09-18T11:08:29.168Z,4.0211
2022-09-18T11:13:46.906Z,4.026
2022-09-18T11:19:08.566Z,4.0797
2022-09-18T11:24:22.576Z,4.0992
2022-09-18T11:29:36.746Z,4.1187
2022-09-18T11:34:50.031Z,4.1236
2022-09-18T11:45:14.735Z,4.148
2022-09-18T11:50:28.105Z,4.1626
2022-09-18T12:00:53.218Z,4.2066
2022-09-18T12:16:29.530Z,4.1236
2022-09-18T12:21:42.331Z,4.148
2022-09-18T12:26:54.778Z,4.1285
2022-09-18T12:37:18.544Z,4.1236
2022-09-18T12:47:51.563Z,4.1578
2022-09-18T13:13:50.473Z,4.1334
2022-09-18T13:19:03.379Z,4.1236
2022-09-18T13:34:37.829Z,4.2017
2022-09-18T14:05:42.571Z,4.1578
2022-09-18T14:16:05.316Z,4.1431
2022-09-18T14:21:18.153Z,4.1431
2022-09-18T14:26:30.460Z,4.1382
2022-09-18T14:31:43.715Z,4.1382
2022-09-18T14:36:57.111Z,4.1382
2022-09-18T14:47:21.815Z,4.1578
2022-09-18T14:57:44.834Z,4.1675
2022-09-18T15:13:20.438Z,4.1822
2022-09-18T15:18:32.587Z,4.1822
2022-09-18T15:23:44.784Z,4.2017
2022-09-18T15:28:57.574Z,4.2017
2022-09-18T15:39:22.032Z,4.1968
2022-09-18T15:44:34.961Z,4.187
2022-09-18T15:54:57.464Z,4.1822
2022-09-18T16:05:22.551Z,4.1724
2022-09-18T16:10:34.608Z,4.1675
2022-09-18T16:15:50.381Z,4.1724
2022-09-18T16:21:04.842Z,4.1626
2022-09-18T16:26:17.130Z,4.1578
2022-09-18T16:31:30.243Z,4.148
2022-09-18T16:36:54.606Z,4.148
2022-09-18T16:42:05.442Z,4.1431
2022-09-18T16:57:40.706Z,4.1334
2022-09-18T17:02:53.530Z,4.1334
2022-09-18T17:08:06.205Z,4.1334
2022-09-18T17:13:18.177Z,4.1285
2022-09-18T17:23:40.930Z,4.1236
2022-09-18T17:28:53.223Z,4.1285
2022-09-18T17:39:18.607Z,4.1187
2022-09-18T17:44:30.482Z,4.1187
2022-09-18T17:49:42.584Z,4.1138
2022-09-18T17:54:55.261Z,4.1138
2022-09-18T18:05:19.352Z,4.109
2022-09-18T18:10:31.868Z,4.109
2022-09-18T18:15:44.822Z,4.1041
2022-09-18T18:20:56.816Z,4.1041
2022-09-18T18:36:33.571Z,4.1041
2022-09-18T18:41:46.189Z,4.0992
2022-09-18T18:46:58.686Z,4.0992
2022-09-18T18:57:25.602Z,4.0992
2022-09-18T19:02:37.819Z,4.0992
2022-09-18T19:07:50.541Z,4.0894
2022-09-18T19:13:04.074Z,4.0894
2022-09-18T19:23:37.062Z,4.0894
2022-09-18T19:29:07.926Z,4.0846
2022-09-18T19:34:19.973Z,4.0846
2022-09-18T19:39:35.841Z,4.0797
2022-09-18T19:44:49.520Z,4.0797
2022-09-18T19:50:03.664Z,4.0797
2022-09-18T20:00:30.203Z,4.0748
2022-09-18T20:05:42.414Z,4.0748
2022-09-18T20:10:54.645Z,4.0748
2022-09-18T20:21:30.980Z,4.0748
2022-09-18T20:26:41.906Z,4.0748
2022-09-18T20:32:05.859Z,4.0748
2022-09-18T20:42:34.291Z,4.0699
2022-09-18T20:47:46.834Z,4.0699
2022-09-18T20:53:03.823Z,4.0699
2022-09-18T20:58:18.510Z,4.0699
2022-09-18T21:03:32.983Z,4.065
2022-09-18T21:08:45.232Z,4.065
2022-09-18T21:13:57.303Z,4.065
2022-09-18T21:24:23.394Z,4.065
2022-09-18T21:29:35.273Z,4.0602
2022-09-18T21:34:47.593Z,4.0602
2022-09-18T21:40:00.410Z,4.0602
2022-09-18T21:45:13.173Z,4.0602
2022-09-18T21:50:25.125Z,4.0602
2022-09-18T21:55:37.211Z,4.0602
2022-09-18T22:00:49.291Z,4.0602
2022-09-18T22:06:01.338Z,4.0602
2022-09-18T22:16:25.408Z,4.0553
2022-09-18T22:21:37.359Z,4.0553
2022-09-18T22:26:49.680Z,4.0553
2022-09-18T22:32:01.645Z,4.0553
2022-09-18T22:42:25.657Z,4.0602
2022-09-18T22:47:37.538Z,4.0553
2022-09-18T22:52:49.749Z,4.0553
2022-09-18T22:58:02.226Z,4.0553
2022-09-18T23:08:26.022Z,4.0553
2022-09-18T23:13:38.625Z,4.0504
2022-09-18T23:18:50.608Z,4.0504
2022-09-18T23:29:22.221Z,4.0504
2022-09-18T23:34:34.063Z,4.0504
2022-09-18T23:39:46.168Z,4.0553
2022-09-18T23:44:58.477Z,4.0504
2022-09-18T23:55:22.617Z,4.0504
